• Join FlightAware (Why Join?)
  • Login
  • US Flag 
11:12PM EDT


 

Airport Tracker/Info


-or-


 

Live Flight TrackerFlight Track Log ✈ UAL6858 ✈ 18-Aug-2013 ✈ KLAX - KIAH

Flight Track Log - Related Links

Times and Time Zones

All times are in EDT time to prevent confusion due to time zone crossing. See the UAL6858 flight status page for this flight to view local times or setup timezone preferences in your user account.

Time Position Orientation Groundspeed Altitude Reporting Facility
EDT Latitude Longitude Course Direction KTS MPH feet Rate Location/Type
04:27PM 33.9360 -118.4130 263° West 158 182 1,200  Level FlightAware
04:27PM 33.9320 -118.4500 263° West 214 246 2,600 2,340 Climbing FlightAware
04:27PM 33.9250 -118.4640 239° Southwest 232 267 3,100 2,580 Climbing FlightAware
04:28PM 33.9130 -118.4830 233° Southwest 254 292 4,000 2,640 Climbing FlightAware
04:28PM 33.9010 -118.4990 228° Southwest 270 311 4,600 1,500 Climbing FlightAware
04:28PM 33.8730 -118.5330 225° Southwest 267 307 5,100 660 Climbing FlightAware
04:29PM 33.8600 -118.5400 204° Southwest 266 306 5,100 600 Level FlightAware
04:29PM 33.8510 -118.5420 190° South 268 308 5,300 3,000 Climbing FlightAware
04:29PM 33.8260 -118.5380 172° South 266 306 6,500 3,900 Climbing FlightAware
04:29PM 33.7960 -118.5340 174° South 267 307 8,200 4,020 Climbing FlightAware
04:30PM 33.7770 -118.5310 173° South 272 313 9,200 3,720 Climbing FlightAware
04:30PM 33.7350 -118.5250 173° South 279 321 11,300 3,060 Climbing FlightAware
04:31PM 33.6820 -118.5180 174° South 291 335 13,000 1,500 Climbing FlightAware
04:31PM 33.6400 -118.5100 171° South 291 335 13,100 120 Climbing FlightAware
04:32PM 33.6270 -118.5030 156° South 293 337 13,100 960 Level FlightAware
04:32PM 33.6140 -118.4870 134° Southeast 298 343 13,500 2,880 Climbing FlightAware
04:32PM 33.6050 -118.4630 114° Southeast 303 349 14,500 3,360 Climbing FlightAware
04:33PM 33.6050 -118.4040 90° East 326 375 16,500 2,520 Climbing FlightAware
04:33PM 33.6060 -118.3440 89° East 362 417 17,300 2,880 Climbing FlightAware
04:34PM 33.6080 -118.2480 89° East 372 428 20,200 3,840 Climbing FlightAware
04:35PM 33.6090 -118.1830 89° East 374 430 22,300 2,700 Climbing FlightAware
04:35PM 33.6100 -118.1110 89° East 397 457 23,100 540 Climbing FlightAware
04:36PM 33.6120 -118.0300 88° East 390 449 23,000 -120 Descending FlightAware
04:36PM 33.6130 -117.9490 89° East 390 449 23,000  Level FlightAware
04:37PM 33.6140 -117.8760 89° East 391 450 23,000 480 Level FlightAware
04:38PM 33.6150 -117.7970 89° East 396 456 23,600 1,860 Climbing FlightAware
04:38PM 33.6160 -117.7300 89° East 405 466 25,100 2,700 Climbing FlightAware
04:39PM 33.6170 -117.6500 89° East 417 480 26,700 2,760 Climbing FlightAware
04:39PM 33.6190 -117.5580 88° East 428 493 28,600 2,700 Climbing FlightAware
04:40PM 33.6190 -117.4730 90° East 440 506 30,000 2,280 Climbing FlightAware
04:40PM 33.6200 -117.3840 89° East 453 521 31,300 2,040 Climbing FlightAware
04:41PM 33.6210 -117.3080 89° East 465 535 32,300 1,980 Climbing FlightAware
04:42PM 33.6220 -117.2120 89° East 473 544 33,600 2,100 Climbing FlightAware
04:42PM 33.6230 -117.1160 89° East 477 549 34,900 1,800 Climbing FlightAware
04:43PM 33.6240 -117.0310 89° East 485 558 35,700 1,800 Climbing FlightAware
04:43PM 33.6250 -116.9380 89° East 486 559 36,900 2,100 Climbing FlightAware
04:44PM 33.6210 -116.8470 93° East 477 549 38,100 1,920 Climbing FlightAware
04:45PM 33.6080 -116.7450 99° East 470 541 39,300 1,680 Climbing FlightAware
04:45PM 33.5940 -116.6510 100° East 469 540 40,300 1,440 Climbing FlightAware
04:46PM 33.5830 -116.5740 100° East 469 540 40,900 600 Climbing FlightAware
04:46PM 33.5690 -116.4770 100° East 468 539 41,000 300 Climbing FlightAware
04:47PM 33.5570 -116.3950 100° East 468 539 41,300 840 Climbing FlightAware
04:47PM 33.5430 -116.2970 100° East 470 541 42,000 960 Climbing FlightAware
04:48PM 33.5310 -116.2200 101° East 474 545 42,400 780 Climbing FlightAware
04:49PM 33.5160 -116.1100 99° East 476 548 43,000 480 Climbing FlightAware
04:49PM 33.5070 -116.0390 99° East 475 547 43,000  Level FlightAware
04:50PM 33.4950 -115.9430 98° East 474 545 43,000  Level FlightAware
04:50PM 33.4830 -115.8520 99° East 473 544 43,000  Level FlightAware
04:51PM 33.4690 -115.7480 99° East 475 547 43,000  Level FlightAware
04:52PM 33.4570 -115.6580 99° East 476 548 43,000  Level FlightAware
04:52PM 33.4430 -115.5550 99° East 476 548 43,000  Level FlightAware
04:53PM 33.4320 -115.4770 100° East 478 550 43,000  Level FlightAware
04:53PM 33.4200 -115.3870 99° East 478 550 43,000  Level FlightAware
04:54PM 33.4070 -115.2950 100° East 479 551 43,000  Level FlightAware
04:55PM 33.3940 -115.2040 100° East 478 550 43,000  Level FlightAware
04:55PM 33.3800 -115.0990 99° East 478 550 43,000  Level FlightAware
04:56PM 33.3690 -115.0210 100° East 479 551 43,000  Level FlightAware
04:56PM 33.3560 -114.9300 100° East 479 551 43,000  Level FlightAware
04:57PM 33.3430 -114.8380 100° East 479 551 43,000  Level FlightAware
04:57PM 33.3300 -114.7470 100° East 478 550 43,000  Level FlightAware
04:58PM 33.3190 -114.6650 99° East 478 550 43,000  Level FlightAware
04:59PM 33.3000 -114.5320 100° East 476 548 43,000  Level FlightAware
04:59PM 33.2840 -114.4240 100° East 472 543 43,000  Level FlightAware
05:00PM 33.2720 -114.3450 100° East 472 543 43,000  Level FlightAware
05:01PM 33.2600 -114.2580 99° East 472 543 43,000  Level FlightAware
05:01PM 33.2450 -114.1560 100° East 474 545 43,000  Level FlightAware
05:02PM 33.2320 -114.0740 101° East 475 547 43,000  Level FlightAware
05:02PM 33.2180 -113.9760 100° East 476 548 43,000  Level FlightAware
05:03PM 33.2040 -113.8820 100° East 475 547 43,000  Level FlightAware
05:04PM 33.1910 -113.7960 100° East 473 544 43,000  Level FlightAware
05:04PM 33.1780 -113.7100 100° East 472 543 43,000  Level FlightAware
05:05PM 33.1650 -113.6220 100° East 471 542 43,000  Level FlightAware
05:05PM 33.1500 -113.5230 100° East 470 541 43,000  Level FlightAware
05:06PM 33.1360 -113.4320 100° East 473 544 43,000  Level FlightAware
05:06PM 33.1230 -113.3510 101° East 474 545 43,000  Level FlightAware
05:07PM 33.1080 -113.2540 100° East 474 545 43,000  Level FlightAware
05:08PM 33.0950 -113.1710 101° East 474 545 43,000  Level FlightAware
05:08PM 33.0820 -113.0870 100° East 475 547 43,000  Level FlightAware
05:09PM 33.0670 -112.9920 101° East 477 549 43,000  Level FlightAware
05:09PM 33.0530 -112.8990 100° East 477 549 43,000  Level FlightAware
05:10PM 33.0380 -112.8060 101° East 479 551 43,000  Level FlightAware
05:11PM 33.0240 -112.7170 101° East 479 551 43,000  Level FlightAware
05:11PM 33.0100 -112.6320 101° East 479 551 43,000  Level FlightAware
05:12PM 32.9940 -112.5320 101° East 479 551 43,000  Level FlightAware
05:12PM 32.9800 -112.4470 101° East 481 554 43,000  Level FlightAware
05:13PM 32.9650 -112.3520 101° East 480 552 43,000  Level FlightAware
05:13PM 32.9500 -112.2610 101° East 480 552 43,000  Level FlightAware
05:14PM 32.9360 -112.1770 101° East 481 554 43,000  Level FlightAware
05:15PM 32.9200 -112.0790 101° East 480 552 43,000  Level FlightAware
05:15PM 32.9070 -112.0030 101° East 481 554 43,000  Level FlightAware
05:16PM 32.8910 -111.9030 101° East 480 552 43,000  Level FlightAware
05:16PM 32.8750 -111.8090 101° East 479 551 43,000  Level FlightAware
05:17PM 32.8600 -111.7170 101° East 479 551 43,000  Level FlightAware
05:18PM 32.8440 -111.6250 102° East 479 551 43,000  Level FlightAware
05:18PM 32.8300 -111.5440 102° East 479 551 43,000  Level FlightAware
05:19PM 32.8150 -111.4550 101° East 480 552 43,000  Level FlightAware
05:19PM 32.7990 -111.3620 102° East 479 551 43,000  Level FlightAware
05:20PM 32.7830 -111.2660 101° East 479 551 43,000  Level FlightAware
05:20PM 32.7670 -111.1740 102° East 478 550 43,000  Level FlightAware
05:21PM 32.7530 -111.0920 101° East 477 549 43,000  Level FlightAware
05:22PM 32.7370 -111.0040 102° East 478 550 43,000  Level FlightAware
05:22PM 32.7210 -110.9120 102° East 479 551 43,000  Level FlightAware
05:23PM 32.7050 -110.8200 102° East 480 552 43,000  Level FlightAware
05:23PM 32.6890 -110.7270 102° East 481 554 43,000  Level FlightAware
05:24PM 32.6740 -110.6440 102° East 479 551 43,000  Level FlightAware
05:24PM 32.6570 -110.5510 102° East 479 551 43,000  Level FlightAware
05:25PM 32.6400 -110.4550 102° East 479 551 43,000  Level FlightAware
05:26PM 32.6260 -110.3730 101° East 480 552 43,000  Level FlightAware
05:26PM 32.6070 -110.2730 103° East 479 551 43,000  Level FlightAware
05:27PM 32.5920 -110.1880 102° East 475 547 43,000  Level FlightAware
05:27PM 32.5750 -110.0950 102° East 473 544 43,000  Level FlightAware
05:28PM 32.5620 -110.0220 102° East 472 543 43,000  Level FlightAware
05:29PM 32.5430 -109.9190 102° East 474 545 43,000  Level FlightAware
05:29PM 32.5280 -109.8370 102° East 474 545 43,000  Level FlightAware
05:30PM 32.5140 -109.7620 102° East 474 545 43,000  Level FlightAware
05:30PM 32.4940 -109.6550 102° East 476 548 43,000  Level FlightAware
05:31PM 32.4770 -109.5650 103° East 475 547 43,000  Level FlightAware
05:32PM 32.4610 -109.4780 102° East 476 548 43,000  Level FlightAware
05:32PM 32.4440 -109.3860 102° East 477 549 43,000  Level FlightAware
05:33PM 32.4280 -109.3060 103° East 476 548 43,000  Level FlightAware
05:33PM 32.4120 -109.2180 102° East 475 547 43,000  Level FlightAware
05:34PM 32.3950 -109.1280 103° East 474 545 43,000  Level FlightAware
05:34PM 32.3770 -109.0370 103° East 474 545 43,000  Level FlightAware
05:35PM 32.3620 -108.9570 102° East 474 545 43,000  Level FlightAware
05:36PM 32.3420 -108.8560 103° East 474 545 43,000  Level FlightAware
05:36PM 32.3250 -108.7690 103° East 476 548 43,000  Level FlightAware
05:37PM 32.3090 -108.6830 102° East 476 548 43,000  Level FlightAware
05:37PM 32.2920 -108.5960 103° East 479 551 43,000  Level FlightAware
05:38PM 32.2730 -108.4990 103° East 477 549 43,000  Level FlightAware
05:39PM 32.2550 -108.4090 103° East 476 548 43,000  Level FlightAware
05:39PM 32.2360 -108.3110 103° East 477 549 43,000  Level FlightAware
05:40PM 32.2220 -108.2360 102° East 477 549 43,000  Level FlightAware
05:40PM 32.2010 -108.1310 103° East 477 549 43,000  Level FlightAware
05:41PM 32.1870 -108.0530 102° East 477 549 43,000  Level FlightAware
05:42PM 32.1730 -107.9750 102° East 477 549 43,000  Level FlightAware
05:42PM 32.1580 -107.8930 102° East 477 549 43,000  Level FlightAware
05:43PM 32.1440 -107.8130 102° East 477 549 43,000  Level FlightAware
05:43PM 32.1300 -107.7350 102° East 477 549 43,000  Level FlightAware
05:44PM 32.1160 -107.6570 102° East 477 549 43,000  Level FlightAware
05:45PM 32.1010 -107.5770 102° East 477 549 43,000  Level FlightAware
05:45PM 32.0870 -107.4990 102° East 477 549 43,000  Level FlightAware
05:46PM 32.0290 -107.2890 108° East 482 555 43,000  Level FlightAware
05:47PM 32.0080 -107.1890 104° East 483 556 43,000  Level FlightAware
05:47PM 31.9910 -107.1050 103° East 483 556 43,000  Level FlightAware
05:48PM 31.9710 -107.0120 104° East 485 558 43,000  Level FlightAware
05:48PM 31.9560 -106.9400 104° East 486 559 43,000  Level FlightAware
05:49PM 31.9370 -106.8480 104° East 486 559 43,000  Level FlightAware
05:49PM 31.9150 -106.7440 104° East 486 559 43,000  Level FlightAware
05:50PM 31.8970 -106.6590 104° East 487 560 43,000  Level FlightAware
05:51PM 31.8780 -106.5700 104° East 487 560 43,000  Level FlightAware
05:51PM 31.8600 -106.4890 105° East 487 560 43,000  Level FlightAware
05:52PM 31.8410 -106.3980 104° East 489 563 43,000  Level FlightAware
05:52PM 31.8190 -106.2970 104° East 489 563 43,000  Level FlightAware
05:53PM 31.7980 -106.2050 105° East 490 564 43,000  Level FlightAware
05:54PM 31.7750 -106.1160 107° East 490 564 43,000  Level FlightAware
05:54PM 31.7530 -106.0280 106° East 491 565 43,000  Level FlightAware
05:55PM 31.7300 -105.9380 107° East 490 564 43,000  Level FlightAware
05:55PM 31.7060 -105.8380 106° East 491 565 43,000  Level FlightAware
05:56PM 31.6840 -105.7510 107° East 492 566 43,000  Level FlightAware
05:57PM 31.6580 -105.6500 107° East 494 568 43,000  Level FlightAware
05:57PM 31.6380 -105.5650 105° East 494 568 43,000  Level FlightAware
05:58PM 31.6180 -105.4860 107° East 494 568 43,000  Level FlightAware
05:58PM 31.5990 -105.4070 106° East 494 568 43,000  Level FlightAware
05:59PM 31.5800 -105.3280 106° East 494 568 43,000  Level FlightAware
06:00PM 31.5610 -105.2490 106° East 494 568 43,000  Level FlightAware
06:00PM 31.5420 -105.0950 98° East 493 567 43,000  Level FlightAware
06:01PM 31.5310 -105.0110 99° East 492 566 43,000  Level FlightAware
06:01PM 31.5210 -104.9280 98° East 492 566 43,000  Level FlightAware
06:02PM 31.5060 -104.8060 98° East 494 568 43,000  Level FlightAware
06:03PM 31.4940 -104.7110 98° East 495 570 43,000  Level FlightAware
06:03PM 31.4830 -104.6280 99° East 494 568 43,000  Level FlightAware
06:04PM 31.4710 -104.5340 98° East 491 565 43,000  Level FlightAware
06:04PM 31.4580 -104.4360 99° East 490 564 43,000  Level FlightAware
06:05PM 31.4470 -104.3560 99° East 488 562 43,000  Level FlightAware
06:06PM 31.4350 -104.2570 98° East 486 559 43,000  Level FlightAware
06:06PM 31.4120 -104.1510 104° East 486 559 43,000  Level FlightAware
06:07PM 31.3940 -104.0640 104° East 487 560 43,000  Level FlightAware
06:07PM 31.3760 -103.9770 104° East 488 562 43,000  Level FlightAware
06:08PM 31.3570 -103.8810 103° East 488 562 43,000  Level FlightAware
06:09PM 31.3410 -103.8020 103° East 488 562 43,000  Level FlightAware
06:09PM 31.3260 -103.7240 103° East 488 562 43,000  Level FlightAware
06:10PM 31.3100 -103.6450 103° East 488 562 43,000  Level FlightAware
06:10PM 31.2950 -103.5660 103° East 488 562 43,000  Level FlightAware
06:11PM 31.2800 -103.4920 103° East 488 562 43,000  Level FlightAware
06:12PM 31.2640 -103.4110 103° East 488 562 43,000  Level FlightAware
06:12PM 31.2480 -103.3300 103° East 488 562 43,000  Level FlightAware
06:13PM 31.2330 -103.2510 103° East 488 562 43,000  Level FlightAware
06:13PM 31.2170 -103.1720 103° East 488 562 43,000  Level FlightAware
06:14PM 31.2010 -103.0940 103° East 488 562 43,000  Level FlightAware
06:15PM 31.1860 -103.0150 102° East 488 562 43,000  Level FlightAware
06:15PM 31.1700 -102.9360 103° East 488 562 43,000  Level FlightAware
06:16PM 31.1540 -102.8550 103° East 488 562 43,000  Level FlightAware
06:16PM 31.1390 -102.7770 103° East 488 562 43,000  Level FlightAware
06:17PM 31.1230 -102.6960 103° East 488 562 43,000  Level FlightAware
06:18PM 30.9519 -102.4431 103° East 484 557 43,000  Level Albuquerque Center
06:18PM 30.9247 -102.3553 110° East 482 555 43,000 -120 Level Houston Center
06:19PM 30.8803 -102.2100 110° East 483 556 42,900 -60 Descending Houston Center
06:20PM 30.8264 -102.0378 110° East 480 552 42,900  Level Houston Center
06:21PM 30.7817 -101.8925 110° East 479 551 42,900  Level Houston Center
06:22PM 30.7356 -101.7475 110° East 480 552 43,000  Climbing Houston Center
06:23PM 30.6892 -101.6028 110° East 479 551 43,000  Level Houston Center
06:25PM 30.6436 -101.4550 110° East 482 555 43,000  Level Houston Center
06:26PM 30.5967 -101.3097 111° Southeast 482 555 43,000  Level Houston Center
06:27PM 30.5508 -101.1642 110° East 482 555 43,000  Level Houston Center
06:28PM 30.4947 -100.9894 110° East 481 554 43,000  Level Houston Center
06:29PM 30.4486 -100.8467 111° Southeast 476 548 43,000 -60 Level Houston Center
06:30PM 30.4011 -100.7028 111° Southeast 478 550 42,900  Descending Houston Center
06:31PM 30.3539 -100.5583 111° Southeast 479 551 43,000  Climbing Houston Center
06:32PM 30.3069 -100.4128 110° East 480 552 42,900 -60 Descending Houston Center
06:33PM 30.2597 -100.2658 110° East 481 554 42,900  Level Houston Center
06:38PM 30.0050 -99.5110 110° East 479 551 43,000  Climbing FlightAware
06:39PM 29.9780 -99.4290 111° Southeast 479 551 43,000  Level FlightAware
06:39PM 29.9530 -99.3560 112° Southeast 479 551 43,000  Level FlightAware
06:40PM 29.9290 -99.2830 111° Southeast 479 551 43,000  Level FlightAware
06:40PM 29.8830 -99.1540 112° Southeast 475 547 43,000  Level FlightAware
06:41PM 29.8550 -99.0660 110° East 475 547 43,000  Level FlightAware
06:42PM 29.8320 -98.9910 109° East 475 547 43,000  Level FlightAware
06:42PM 29.8075 -98.9331 116° Southeast 478 550 43,000  Level FlightAware ADS-B
06:42PM 29.7803 -98.8541 112° Southeast 43,000  Level FlightAware ADS-B
06:43PM 29.7728 -98.8322 112° Southeast 473 544 43,000  Level FlightAware ADS-B
06:43PM 29.7679 -98.8181 112° Southeast 473 544 43,000  Level FlightAware ADS-B
06:43PM 29.7399 -98.7371 112° Southeast 474 545 43,000  Level FlightAware ADS-B
06:44PM 29.7188 -98.6765 112° Southeast 473 544 43,000 -120 Level FlightAware ADS-B
06:44PM 29.6933 -98.6026 112° Southeast 474 545 42,900 -180 Descending FlightAware ADS-B
06:44PM 29.6909 -98.5956 112° Southeast 474 545 42,900 -1,800 Level FlightAware ADS-B
06:45PM 29.6683 -98.5310 112° Southeast 477 549 42,000 -2,280 Descending FlightAware ADS-B
06:45PM 29.6616 -98.5100 110° East 480 552 41,500 -2,700 Descending FlightAware ADS-B
06:45PM 29.6560 -98.4879 106° East 481 554 41,200 -1,920 Descending FlightAware ADS-B
06:45PM 29.6477 -98.4374 101° East 480 552 40,600 -1,800 Descending FlightAware ADS-B
06:45PM 29.6467 -98.4278 97° East 480 552 40,500 -1,980 Descending FlightAware ADS-B
06:46PM 29.6460 -98.3565 91° East 481 554 39,600 -2,040 Descending FlightAware ADS-B
06:46PM 29.6461 -98.3488 89° East 483 556 39,500 -2,280 Descending FlightAware ADS-B
06:46PM 29.6472 -98.2765 89° East 491 565 38,400 -2,400 Descending FlightAware ADS-B
06:46PM 29.6473 -98.2712 89° East 491 565 38,300 -2,400 Descending FlightAware ADS-B
06:47PM 29.6482 -98.1975 89° East 494 568 37,200 -2,400 Descending FlightAware ADS-B
06:47PM 29.6486 -98.1645 89° East 494 568 36,700 -2,640 Descending FlightAware ADS-B
06:47PM 29.6493 -98.1173 89° East 494 568 35,900 -2,160 Descending FlightAware ADS-B
06:48PM 29.6501 -98.0399 89° East 498 573 35,000 -1,980 Descending FlightAware ADS-B
06:48PM 29.6501 -98.0379 90° East 498 573 34,900 -1,620 Descending FlightAware ADS-B
06:48PM 29.6497 -98.0008 91° East 499 574 34,600 -1,200 Descending FlightAware ADS-B
06:48PM 29.6483 -97.9563 92° East 498 573 34,300 -1,200 Descending FlightAware ADS-B
06:49PM 29.6445 -97.8768 93° East 497 572 33,700 -1,380 Descending FlightAware ADS-B
06:49PM 29.6422 -97.8298 93° East 499 574 33,200 -1,320 Descending FlightAware ADS-B
06:50PM 29.6402 -97.7927 94° East 499 574 33,000 -960 Descending FlightAware ADS-B
06:50PM 29.6360 -97.7128 93° East 495 570 32,500 -1,200 Descending FlightAware ADS-B
06:50PM 29.6331 -97.6572 93° East 499 574 32,000 -1,560 Descending FlightAware ADS-B
06:51PM 29.6317 -97.6315 94° East 484 557 31,700 -2,100 Descending FlightAware ADS-B
06:51PM 29.6286 -97.5751 94° East 483 556 30,900 -2,040 Descending FlightAware ADS-B
06:51PM 29.6275 -97.5551 94° East 473 544 30,700 -1,920 Descending FlightAware ADS-B
06:52PM 29.6235 -97.4823 94° East 463 533 29,700 -2,100 Descending FlightAware ADS-B
06:52PM 29.6193 -97.4081 94° East 455 524 28,600 -2,160 Descending FlightAware ADS-B
06:52PM 29.6170 -97.3668 94° East 453 521 28,000 -2,160 Descending FlightAware ADS-B
06:53PM 29.6153 -97.3353 94° East 450 518 27,500 -2,100 Descending FlightAware ADS-B
06:53PM 29.6117 -97.2718 94° East 451 519 26,600 -2,040 Descending FlightAware ADS-B
06:53PM 29.6112 -97.2634 94° East 445 512 26,500 -2,340 Descending FlightAware ADS-B
06:54PM 29.6072 -97.1903 94° East 440 506 25,300 -2,160 Descending FlightAware ADS-B
06:54PM 29.6032 -97.1196 94° East 433 498 24,300 -2,100 Descending FlightAware ADS-B
06:55PM 29.5993 -97.0509 94° East 427 491 23,200 -2,280 Descending FlightAware ADS-B
06:55PM 29.5954 -96.9824 94° East 430 495 22,000 -2,280 Descending FlightAware ADS-B
06:56PM 29.5922 -96.9298 94° East 432 497 21,200 -2,220 Descending FlightAware ADS-B
06:56PM 29.5912 -96.9120 94° East 433 498 20,900 -2,400 Descending FlightAware ADS-B
06:56PM 29.5872 -96.8416 94° East 430 495 19,700 -2,340 Descending FlightAware ADS-B
06:56PM 29.5849 -96.8050 94° East 424 488 19,100 -2,400 Descending FlightAware ADS-B
06:57PM 29.5831 -96.7743 94° East 420 483 18,500 -2,160 Descending FlightAware ADS-B
06:57PM 29.5790 -96.7076 94° East 405 466 17,500 -2,220 Descending FlightAware ADS-B
06:58PM 29.5750 -96.6435 94° East 397 457 16,300 -2,640 Descending FlightAware ADS-B
06:58PM 29.5711 -96.5808 94° East 397 457 14,900 -2,820 Descending FlightAware ADS-B
06:59PM 29.5671 -96.5167 94° East 395 455 13,500 -2,700 Descending FlightAware ADS-B
06:59PM 29.5633 -96.4536 94° East 387 445 12,200 -2,400 Descending FlightAware ADS-B
07:00PM 29.5597 -96.3919 94° East 378 435 11,100 -1,500 Descending FlightAware ADS-B
07:00PM 29.5562 -96.3347 94° East 349 402 10,700 -660 Descending FlightAware ADS-B
07:01PM 29.5527 -96.2834 94° East 322 371 10,500 -540 Descending FlightAware ADS-B
07:01PM 29.5493 -96.2311 94° East 330 380 10,200 -480 Descending FlightAware ADS-B
07:02PM 29.5469 -96.1912 94° East 328 377 10,100 -420 Descending FlightAware ADS-B
07:02PM 29.5468 -96.1821 91° East 326 375 10,000 -720 Descending FlightAware ADS-B
07:02PM 29.5473 -96.1756 85° East 324 373 10,000  Level FlightAware ADS-B
07:02PM 29.5480 -96.1702 82° East 322 371 10,000  Level FlightAware ADS-B
07:02PM 29.5499 -96.1623 75° East 319 367 10,000 -720 Level FlightAware ADS-B
07:02PM 29.5516 -96.1573 69° East 319 367 9,900 -900 Descending FlightAware ADS-B
07:02PM 29.5537 -96.1516 67° East 318 366 9,900  Level FlightAware ADS-B
07:02PM 29.5559 -96.1467 63° Northeast 316 364 9,900  Level FlightAware ADS-B
07:02PM 29.5642 -96.1311 59° Northeast 316 364 9,900  Level FlightAware ADS-B
07:02PM 29.5752 -96.1090 60° Northeast 316 364 9,900  Level FlightAware ADS-B
07:03PM 29.5862 -96.0865 61° Northeast 318 366 9,900  Level FlightAware ADS-B
07:03PM 29.5976 -96.0643 59° Northeast 318 366 9,900  Level FlightAware ADS-B
07:03PM 29.6089 -96.0418 60° Northeast 317 365 9,900  Level FlightAware ADS-B
07:03PM 29.6198 -96.0202 60° Northeast 303 349 9,900 -420 Level FlightAware ADS-B
07:04PM 29.6302 -95.9995 60° Northeast 291 335 9,700 -1,020 Descending FlightAware ADS-B
07:04PM 29.6402 -95.9798 60° Northeast 284 327 9,400 -1,440 Descending FlightAware ADS-B
07:04PM 29.6501 -95.9601 60° Northeast 281 323 9,000 -1,500 Descending FlightAware ADS-B
07:04PM 29.6594 -95.9416 60° Northeast 279 321 8,700 -960 Descending FlightAware ADS-B
07:05PM 29.6627 -95.9358 57° Northeast 278 320 8,700 -780 Level FlightAware ADS-B
07:05PM 29.6651 -95.9320 54° Northeast 276 318 8,600 -1,020 Descending FlightAware ADS-B
07:05PM 29.6676 -95.9288 48° Northeast 275 316 8,600 -900 Level FlightAware ADS-B
07:05PM 29.6708 -95.9253 44° Northeast 274 315 8,500 -1,740 Descending FlightAware ADS-B
07:05PM 29.6742 -95.9222 38° Northeast 274 315 8,400 -1,740 Descending FlightAware ADS-B
07:05PM 29.6787 -95.9190 32° Northeast 274 315 8,300 -1,380 Descending FlightAware ADS-B
07:05PM 29.6839 -95.9159 27° Northeast 274 315 8,200 -1,500 Descending FlightAware ADS-B
07:05PM 29.6922 -95.9114 25° Northeast 275 316 8,000 -1,800 Descending FlightAware ADS-B
07:05PM 29.6955 -95.9094 28° Northeast 275 316 7,900 -1,740 Descending FlightAware ADS-B
07:05PM 29.7001 -95.9060 33° Northeast 276 318 7,800 -1,740 Descending FlightAware ADS-B
07:05PM 29.7033 -95.9032 37° Northeast 275 316 7,700 -1,740 Descending FlightAware ADS-B
07:05PM 29.7066 -95.9000 40° Northeast 276 318 7,600 -2,280 Descending FlightAware ADS-B
07:05PM 29.7108 -95.8956 42° Northeast 277 319 7,400 -1,500 Descending FlightAware ADS-B
07:06PM 29.7252 -95.8793 45° Northeast 277 319 7,100 -780 Descending FlightAware ADS-B
07:06PM 29.7395 -95.8640 43° Northeast 277 319 7,000 -420 Descending FlightAware ADS-B
07:06PM 29.7541 -95.8488 42° Northeast 276 318 6,900  Descending FlightAware ADS-B
07:07PM 29.7831 -95.8199 41° Northeast 274 315 7,000 -180 Climbing FlightAware ADS-B
07:07PM 29.7976 -95.8057 40° Northeast 272 313 6,800 -1,200 Descending FlightAware ADS-B
07:07PM 29.8124 -95.7913 40° Northeast 272 313 6,400 -1,560 Descending FlightAware ADS-B
07:07PM 29.8271 -95.7768 41° Northeast 273 314 6,000 -1,380 Descending FlightAware ADS-B
07:08PM 29.8420 -95.7621 41° Northeast 274 315 5,700 -1,380 Descending FlightAware ADS-B
07:08PM 29.8572 -95.7470 41° Northeast 274 315 5,300 -1,320 Descending FlightAware ADS-B
07:08PM 29.8724 -95.7320 41° Northeast 274 315 5,000 -1,200 Descending FlightAware ADS-B
07:08PM 29.8866 -95.7177 41° Northeast 270 311 4,700 -840 Descending FlightAware ADS-B
07:09PM 29.9008 -95.7035 41° Northeast 262 302 4,600 -840 Descending FlightAware ADS-B
07:09PM 29.9147 -95.6895 41° Northeast 261 300 4,300 -1,200 Descending FlightAware ADS-B
07:09PM 29.9288 -95.6754 41° Northeast 256 295 4,000 -720 Descending FlightAware ADS-B
07:09PM 29.9451 -95.6590 41° Northeast 249 287 3,900 -180 Descending FlightAware ADS-B
07:10PM 29.9588 -95.6452 41° Northeast 233 268 3,900 -240 Level FlightAware ADS-B
07:10PM 29.9711 -95.6329 41° Northeast 225 259 3,800 -420 Descending FlightAware ADS-B
07:10PM 29.9815 -95.6224 41° Northeast 219 252 3,700 -300 Descending FlightAware ADS-B
07:10PM 29.9860 -95.6175 43° Northeast 215 247 3,700 -600 Level FlightAware ADS-B
07:10PM 29.9882 -95.6143 52° Northeast 211 243 3,600 -720 Descending FlightAware ADS-B
07:10PM 29.9904 -95.6095 62° Northeast 207 238 3,600  Level FlightAware ADS-B
07:11PM 29.9915 -95.6057 72° East 204 235 3,600  Level FlightAware ADS-B
07:11PM 29.9923 -95.6015 78° East 202 232 3,600 -720 Level FlightAware ADS-B
07:11PM 29.9927 -95.5968 84° East 200 230 3,500 -660 Descending FlightAware ADS-B
07:11PM 29.9933 -95.5822 87° East 194 223 3,400 -300 Descending FlightAware ADS-B
07:11PM 29.9934 -95.5726 89° East 192 221 3,400 -480 Level FlightAware ADS-B
07:11PM 29.9932 -95.5557 91° East 190 219 3,200 -600 Descending FlightAware ADS-B
07:12PM 29.9931 -95.5407 90° East 191 220 3,100 -840 Descending FlightAware ADS-B
07:12PM 29.9931 -95.5247 90° East 195 224 2,800 -1,080 Descending FlightAware ADS-B
07:12PM 29.9932 -95.5105 90° East 191 220 2,600 -1,020 Descending FlightAware ADS-B
07:12PM 29.9932 -95.4948 90° East 183 211 2,300 -960 Descending FlightAware ADS-B
07:13PM 29.9932 -95.4635 90° East 158 182 1,800 -900 Descending FlightAware ADS-B
07:13PM 29.9933 -95.4515 89° East 142 163 1,600 -780 Descending FlightAware ADS-B
07:13PM 29.9933 -95.4396 90° East 135 155 1,400 -600 Descending FlightAware ADS-B
07:14PM 29.9933 -95.4285 90° East 135 155 1,300 -600 Descending FlightAware ADS-B
07:14PM 29.9934 -95.4174 89° East 134 154 1,100 -840 Descending FlightAware ADS-B
07:14PM 29.9934 -95.4081 90° East 131 151 900 -660 Descending FlightAware ADS-B
07:14PM 29.9934 -95.3980 90° East 133 153 800 -600 Descending FlightAware ADS-B
07:15PM 29.9935 -95.3871 89° East 132 152 600 -780 Descending FlightAware ADS-B
07:15PM 29.9934 -95.3765 91° East 132 152 400 -600 Descending FlightAware ADS-B
07:15PM 29.9935 -95.3649 89° East 132 152 300 -600 Descending FlightAware ADS-B
07:15PM 29.9935 -95.3556 90° East 132 152 100 -900 Descending FlightAware ADS-B